sensor_id;sensor_type;location;lat;lon;timestamp;pressure;altitude;pressure_sealevel;temperature;humidity
73558;BME280;61829;53.286;10.434;2023-07-29T00:02:25;100469.94;;;18.73;100.00
73558;BME280;61829;53.286;10.434;2023-07-29T00:04:52;100472.13;;;18.71;100.00
73558;BME280;61829;53.286;10.434;2023-07-29T00:07:18;100464.66;;;18.67;100.00
73558;BME280;61829;53.286;10.434;2023-07-29T00:09:44;100477.72;;;18.65;100.00
73558;BME280;61829;53.286;10.434;2023-07-29T00:12:10;100468.38;;;18.60;100.00
73558;BME280;61829;53.286;10.434;2023-07-29T00:14:36;100466.16;;;18.57;100.00
73558;BME280;61829;53.286;10.434;2023-07-29T00:17:02;100469.38;;;18.54;100.00
73558;BME280;61829;53.286;10.434;2023-07-29T00:19:28;100461.69;;;18.51;100.00
73558;BME280;61829;53.286;10.434;2023-07-29T00:21:54;100458.59;;;18.48;100.00
73558;BME280;61829;53.286;10.434;2023-07-29T00:24:20;100446.75;;;18.42;100.00
73558;BME280;61829;53.286;10.434;2023-07-29T00:26:47;100445.63;;;18.38;100.00
73558;BME280;61829;53.286;10.434;2023-07-29T00:29:13;100443.38;;;18.35;100.00
73558;BME280;61829;53.286;10.434;2023-07-29T00:31:40;100449.34;;;18.32;100.00
73558;BME280;61829;53.286;10.434;2023-07-29T00:34:05;100447.91;;;18.29;100.00
73558;BME280;61829;53.286;10.434;2023-07-29T00:36:32;100440.22;;;18.26;100.00
73558;BME280;61829;53.286;10.434;2023-07-29T00:38:57;100429.81;;;18.23;100.00
73558;BME280;61829;53.286;10.434;2023-07-29T00:41:25;100425.06;;;18.18;100.00
73558;BME280;61829;53.286;10.434;2023-07-29T00:43:51;100419.28;;;18.15;100.00
73558;BME280;61829;53.286;10.434;2023-07-29T00:46:18;100421.44;;;18.13;100.00
73558;BME280;61829;53.286;10.434;2023-07-29T00:48:44;100416.47;;;18.10;100.00
73558;BME280;61829;53.286;10.434;2023-07-29T00:51:11;100420.75;;;18.06;100.00
73558;BME280;61829;53.286;10.434;2023-07-29T00:53:36;100418.75;;;18.01;100.00
73558;BME280;61829;53.286;10.434;2023-07-29T00:56:03;100418.16;;;17.99;100.00
73558;BME280;61829;53.286;10.434;2023-07-29T00:58:29;100421.38;;;17.96;100.00
73558;BME280;61829;53.286;10.434;2023-07-29T01:00:55;100418.06;;;17.94;100.00
73558;BME280;61829;53.286;10.434;2023-07-29T01:03:22;100416.66;;;17.91;100.00
73558;BME280;61829;53.286;10.434;2023-07-29T01:16:29;100397.00;;;17.78;100.00
73558;BME280;61829;53.286;10.434;2023-07-29T01:18:58;100401.88;;;17.76;100.00
73558;BME280;61829;53.286;10.434;2023-07-29T01:21:28;100395.16;;;17.78;100.00
73558;BME280;61829;53.286;10.434;2023-07-29T01:23:58;100403.34;;;17.78;100.00
73558;BME280;61829;53.286;10.434;2023-07-29T01:26:25;100403.78;;;17.75;100.00
73558;BME280;61829;53.286;10.434;2023-07-29T01:28:51;100405.44;;;17.76;100.00
73558;BME280;61829;53.286;10.434;2023-07-29T01:31:42;100406.06;;;17.78;100.00
73558;BME280;61829;53.286;10.434;2023-07-29T01:36:57;100395.50;;;17.82;100.00
73558;BME280;61829;53.286;10.434;2023-07-29T01:39:28;100400.34;;;17.80;100.00
73558;BME280;61829;53.286;10.434;2023-07-29T01:41:55;100393.00;;;17.80;100.00
73558;BME280;61829;53.286;10.434;2023-07-29T01:44:21;100384.81;;;17.80;100.00
73558;BME280;61829;53.286;10.434;2023-07-29T01:46:49;100386.25;;;17.83;100.00
73558;BME280;61829;53.286;10.434;2023-07-29T01:49:15;100388.72;;;17.84;100.00
73558;BME280;61829;53.286;10.434;2023-07-29T01:51:41;100378.66;;;17.85;100.00
73558;BME280;61829;53.286;10.434;2023-07-29T01:54:08;100389.31;;;17.86;100.00
73558;BME280;61829;53.286;10.434;2023-07-29T01:56:34;100381.16;;;17.86;100.00
73558;BME280;61829;53.286;10.434;2023-07-29T01:59:00;100382.78;;;17.87;100.00
73558;BME280;61829;53.286;10.434;2023-07-29T02:01:26;100373.31;;;17.90;100.00
73558;BME280;61829;53.286;10.434;2023-07-29T02:03:52;100373.03;;;17.91;100.00
73558;BME280;61829;53.286;10.434;2023-07-29T02:06:21;100384.78;;;17.92;100.00
73558;BME280;61829;53.286;10.434;2023-07-29T02:08:47;100383.72;;;17.93;100.00
73558;BME280;61829;53.286;10.434;2023-07-29T02:11:14;100380.41;;;17.91;100.00
73558;BME280;61829;53.286;10.434;2023-07-29T02:13:40;100377.44;;;17.92;100.00
73558;BME280;61829;53.286;10.434;2023-07-29T02:16:06;100369.25;;;17.92;100.00
73558;BME280;61829;53.286;10.434;2023-07-29T02:18:32;100371.72;;;17.94;100.00
73558;BME280;61829;53.286;10.434;2023-07-29T02:20:58;100367.34;;;17.93;100.00
73558;BME280;61829;53.286;10.434;2023-07-29T02:23:24;100374.72;;;17.92;100.00
73558;BME280;61829;53.286;10.434;2023-07-29T02:25:50;100365.72;;;17.92;100.00
73558;BME280;61829;53.286;10.434;2023-07-29T02:28:16;100366.44;;;17.87;100.00
73558;BME280;61829;53.286;10.434;2023-07-29T02:30:42;100368.34;;;17.87;100.00
73558;BME280;61829;53.286;10.434;2023-07-29T02:33:11;100359.34;;;17.86;100.00
73558;BME280;61829;53.286;10.434;2023-07-29T02:35:38;100369.66;;;17.84;100.00
73558;BME280;61829;53.286;10.434;2023-07-29T02:38:03;100378.06;;;17.83;100.00
73558;BME280;61829;53.286;10.434;2023-07-29T02:40:30;100369.56;;;17.79;100.00
73558;BME280;61829;53.286;10.434;2023-07-29T02:42:56;100377.94;;;17.78;100.00
73558;BME280;61829;53.286;10.434;2023-07-29T02:45:22;100370.00;;;17.76;100.00
73558;BME280;61829;53.286;10.434;2023-07-29T02:47:48;100381.13;;;17.74;100.00
73558;BME280;61829;53.286;10.434;2023-07-29T02:50:14;100376.44;;;17.70;100.00
73558;BME280;61829;53.286;10.434;2023-07-29T02:52:40;100371.22;;;17.68;100.00
73558;BME280;61829;53.286;10.434;2023-07-29T02:55:06;100369.56;;;17.67;100.00
73558;BME280;61829;53.286;10.434;2023-07-29T02:57:32;100368.75;;;17.67;100.00
73558;BME280;61829;53.286;10.434;2023-07-29T03:00:00;100359.16;;;17.64;100.00
73558;BME280;61829;53.286;10.434;2023-07-29T03:02:25;100349.56;;;17.62;100.00
73558;BME280;61829;53.286;10.434;2023-07-29T03:04:52;100352.78;;;17.59;100.00
73558;BME280;61829;53.286;10.434;2023-07-29T03:07:18;100361.19;;;17.57;100.00
73558;BME280;61829;53.286;10.434;2023-07-29T03:09:44;100357.06;;;17.55;100.00
73558;BME280;61829;53.286;10.434;2023-07-29T03:12:11;100359.44;;;17.51;100.00
73558;BME280;61829;53.286;10.434;2023-07-29T03:14:37;100358.03;;;17.48;100.00
73558;BME280;61829;53.286;10.434;2023-07-29T03:17:03;100357.44;;;17.46;100.00
73558;BME280;61829;53.286;10.434;2023-07-29T03:19:30;100357.44;;;17.46;100.00
73558;BME280;61829;53.286;10.434;2023-07-29T03:21:56;100360.63;;;17.43;100.00
73558;BME280;61829;53.286;10.434;2023-07-29T03:24:22;100356.03;;;17.44;100.00
73558;BME280;61829;53.286;10.434;2023-07-29T03:26:48;100359.81;;;17.43;100.00
73558;BME280;61829;53.286;10.434;2023-07-29T03:29:14;100364.09;;;17.39;100.00
73558;BME280;61829;53.286;10.434;2023-07-29T03:31:40;100368.38;;;17.35;100.00
73558;BME280;61829;53.286;10.434;2023-07-29T03:34:06;100375.72;;;17.34;100.00
73558;BME280;61829;53.286;10.434;2023-07-29T03:36:32;100371.91;;;17.35;100.00
73558;BME280;61829;53.286;10.434;2023-07-29T03:38:58;100371.69;;;17.37;100.00
73558;BME280;61829;53.286;10.434;2023-07-29T03:41:26;100372.03;;;17.40;100.00
73558;BME280;61829;53.286;10.434;2023-07-29T03:43:52;100373.09;;;17.39;100.00
73558;BME280;61829;53.286;10.434;2023-07-29T03:46:18;100372.84;;;17.41;100.00
73558;BME280;61829;53.286;10.434;2023-07-29T03:48:47;100365.03;;;17.44;100.00
73558;BME280;61829;53.286;10.434;2023-07-29T03:51:13;100362.88;;;17.46;100.00
73558;BME280;61829;53.286;10.434;2023-07-29T03:53:40;100366.69;;;17.45;100.00
73558;BME280;61829;53.286;10.434;2023-07-29T03:56:06;100362.06;;;17.46;100.00
73558;BME280;61829;53.286;10.434;2023-07-29T03:58:33;100359.09;;;17.47;100.00
73558;BME280;61829;53.286;10.434;2023-07-29T04:01:00;100356.97;;;17.49;100.00
73558;BME280;61829;53.286;10.434;2023-07-29T04:03:26;100362.97;;;17.51;100.00
73558;BME280;61829;53.286;10.434;2023-07-29T04:05:52;100357.31;;;17.53;100.00
73558;BME280;61829;53.286;10.434;2023-07-29T04:08:19;100357.31;;;17.53;100.00
73558;BME280;61829;53.286;10.434;2023-07-29T04:10:45;100356.00;;;17.56;100.00
73558;BME280;61829;53.286;10.434;2023-07-29T04:13:11;100358.72;;;17.56;100.00
73558;BME280;61829;53.286;10.434;2023-07-29T04:15:37;100358.47;;;17.57;100.00
73558;BME280;61829;53.286;10.434;2023-07-29T04:18:03;100355.50;;;17.59;100.00
73558;BME280;61829;53.286;10.434;2023-07-29T04:20:29;100353.94;;;17.63;100.00
73558;BME280;61829;53.286;10.434;2023-07-29T04:22:55;100355.13;;;17.67;100.00
73558;BME280;61829;53.286;10.434;2023-07-29T04:25:21;100356.59;;;17.74;100.00
73558;BME280;61829;53.286;10.434;2023-07-29T04:27:47;100358.75;;;17.84;100.00
73558;BME280;61829;53.286;10.434;2023-07-29T04:30:14;100350.84;;;18.00;100.00
73558;BME280;61829;53.286;10.434;2023-07-29T04:32:40;100353.56;;;18.16;100.00
73558;BME280;61829;53.286;10.434;2023-07-29T04:35:11;100358.13;;;18.28;100.00
73558;BME280;61829;53.286;10.434;2023-07-29T04:37:38;100352.69;;;18.45;100.00
73558;BME280;61829;53.286;10.434;2023-07-29T04:40:04;100350.03;;;18.67;100.00
73558;BME280;61829;53.286;10.434;2023-07-29T04:42:30;100354.75;;;18.88;100.00
73558;BME280;61829;53.286;10.434;2023-07-29T04:44:56;100346.75;;;19.03;100.00
73558;BME280;61829;53.286;10.434;2023-07-29T04:47:22;100355.13;;;19.19;100.00
73558;BME280;61829;53.286;10.434;2023-07-29T04:49:48;100350.69;;;19.35;100.00
73558;BME280;61829;53.286;10.434;2023-07-29T04:52:16;100352.03;;;19.54;100.00
73558;BME280;61829;53.286;10.434;2023-07-29T04:54:42;100348.56;;;19.64;99.55
73558;BME280;61829;53.286;10.434;2023-07-29T04:57:08;100355.50;;;19.71;98.87
73558;BME280;61829;53.286;10.434;2023-07-29T04:59:34;100363.25;;;19.80;98.80
73558;BME280;61829;53.286;10.434;2023-07-29T05:02:00;100356.03;;;19.95;98.21
73558;BME280;61829;53.286;10.434;2023-07-29T05:04:26;100360.50;;;20.07;96.33
73558;BME280;61829;53.286;10.434;2023-07-29T05:06:52;100349.88;;;20.10;95.72
73558;BME280;61829;53.286;10.434;2023-07-29T05:09:19;100353.69;;;20.09;96.21
73558;BME280;61829;53.286;10.434;2023-07-29T05:11:46;100359.22;;;20.14;96.00
73558;BME280;61829;53.286;10.434;2023-07-29T05:14:13;100355.34;;;20.10;95.83
73558;BME280;61829;53.286;10.434;2023-07-29T05:16:39;100355.00;;;20.02;94.98
73558;BME280;61829;53.286;10.434;2023-07-29T05:19:05;100351.03;;;19.87;95.65
73558;BME280;61829;53.286;10.434;2023-07-29T05:21:32;100349.66;;;19.85;96.61
73558;BME280;61829;53.286;10.434;2023-07-29T05:23:57;100339.25;;;19.87;96.85
73558;BME280;61829;53.286;10.434;2023-07-29T05:26:24;100342.56;;;19.89;96.93
73558;BME280;61829;53.286;10.434;2023-07-29T05:28:50;100351.81;;;19.83;96.90
73558;BME280;61829;53.286;10.434;2023-07-29T05:31:16;100344.38;;;19.78;97.29
73558;BME280;61829;53.286;10.434;2023-07-29T05:33:42;100344.63;;;19.77;97.61
73558;BME280;61829;53.286;10.434;2023-07-29T05:36:08;100350.34;;;19.75;97.91
73558;BME280;61829;53.286;10.434;2023-07-29T05:38:34;100351.69;;;19.72;98.19
73558;BME280;61829;53.286;10.434;2023-07-29T05:41:01;100351.38;;;19.69;98.69
73558;BME280;61829;53.286;10.434;2023-07-29T05:43:27;100347.25;;;19.66;99.04
73558;BME280;61829;53.286;10.434;2023-07-29T05:45:53;100352.22;;;19.69;98.40
73558;BME280;61829;53.286;10.434;2023-07-29T05:48:19;100355.00;;;19.74;98.74
73558;BME280;61829;53.286;10.434;2023-07-29T05:50:46;100352.56;;;19.78;99.17
73558;BME280;61829;53.286;10.434;2023-07-29T05:53:12;100356.69;;;19.81;98.50
73558;BME280;61829;53.286;10.434;2023-07-29T05:55:38;100351.75;;;19.78;98.82
73558;BME280;61829;53.286;10.434;2023-07-29T05:58:05;100351.75;;;19.78;99.30
73558;BME280;61829;53.286;10.434;2023-07-29T06:00:31;100335.91;;;19.80;99.39
73558;BME280;61829;53.286;10.434;2023-07-29T06:02:57;100340.34;;;19.86;98.54
73558;BME280;61829;53.286;10.434;2023-07-29T06:05:24;100348.56;;;19.86;98.48
73558;BME280;61829;53.286;10.434;2023-07-29T06:07:49;100358.41;;;19.87;99.00
73558;BME280;61829;53.286;10.434;2023-07-29T06:10:16;100357.13;;;19.94;98.48
73558;BME280;61829;53.286;10.434;2023-07-29T06:12:46;100351.47;;;20.06;97.86
73558;BME280;61829;53.286;10.434;2023-07-29T06:15:12;100356.59;;;20.25;97.84
73558;BME280;61829;53.286;10.434;2023-07-29T06:17:38;100346.78;;;20.34;97.21
73558;BME280;61829;53.286;10.434;2023-07-29T06:20:05;100354.00;;;20.45;96.78
73558;BME280;61829;53.286;10.434;2023-07-29T06:22:32;100349.13;;;20.52;95.57
73558;BME280;61829;53.286;10.434;2023-07-29T06:24:58;100353.34;;;20.65;94.17
73558;BME280;61829;53.286;10.434;2023-07-29T06:27:25;100349.31;;;20.73;93.60
73558;BME280;61829;53.286;10.434;2023-07-29T06:33:58;100330.38;;;21.19;90.46
73558;BME280;61829;53.286;10.434;2023-07-29T06:36:24;100327.22;;;21.47;89.11
73558;BME280;61829;53.286;10.434;2023-07-29T06:38:50;100320.44;;;21.91;87.71
73558;BME280;61829;53.286;10.434;2023-07-29T06:41:16;100323.22;;;22.27;85.41
73558;BME280;61829;53.286;10.434;2023-07-29T06:46:08;100318.47;;;22.99;80.66
73558;BME280;61829;53.286;10.434;2023-07-29T06:48:34;100320.81;;;23.31;79.17
73558;BME280;61829;53.286;10.434;2023-07-29T06:51:00;100332.00;;;23.50;78.95
73558;BME280;61829;53.286;10.434;2023-07-29T06:53:28;100327.38;;;23.90;77.54
73558;BME280;61829;53.286;10.434;2023-07-29T06:55:54;100317.91;;;24.35;74.74
73558;BME280;61829;53.286;10.434;2023-07-29T06:58:20;100329.50;;;24.67;73.15
73558;BME280;61829;53.286;10.434;2023-07-29T07:00:47;100328.22;;;24.83;72.34
73558;BME280;61829;53.286;10.434;2023-07-29T07:03:13;100318.31;;;25.06;70.46
73558;BME280;61829;53.286;10.434;2023-07-29T07:05:39;100317.25;;;25.45;67.97
73558;BME280;61829;53.286;10.434;2023-07-29T07:08:05;100319.41;;;25.91;67.39
73558;BME280;61829;53.286;10.434;2023-07-29T07:10:31;100321.00;;;26.43;65.37
73558;BME280;61829;53.286;10.434;2023-07-29T07:12:59;100323.13;;;26.79;63.08
73558;BME280;61829;53.286;10.434;2023-07-29T07:15:25;100325.50;;;27.00;63.19
73558;BME280;61829;53.286;10.434;2023-07-29T07:17:52;100322.16;;;27.17;61.30
73558;BME280;61829;53.286;10.434;2023-07-29T07:20:17;100317.75;;;27.16;61.18
73558;BME280;61829;53.286;10.434;2023-07-29T07:22:44;100317.13;;;27.33;60.44
73558;BME280;61829;53.286;10.434;2023-07-29T07:25:10;100325.59;;;27.50;58.89
73558;BME280;61829;53.286;10.434;2023-07-29T07:27:36;100329.91;;;27.28;59.34
73558;BME280;61829;53.286;10.434;2023-07-29T07:30:03;100329.31;;;27.04;59.75
73558;BME280;61829;53.286;10.434;2023-07-29T07:32:29;100323.03;;;26.71;61.56
73558;BME280;61829;53.286;10.434;2023-07-29T07:34:55;100326.84;;;26.42;61.24
73558;BME280;61829;53.286;10.434;2023-07-29T07:37:22;100323.13;;;26.00;62.49
73558;BME280;61829;53.286;10.434;2023-07-29T07:39:48;100321.59;;;25.70;64.08
73558;BME280;61829;53.286;10.434;2023-07-29T07:42:14;100326.38;;;25.45;65.54
73558;BME280;61829;53.286;10.434;2023-07-29T07:44:40;100326.13;;;25.23;66.31
73558;BME280;61829;53.286;10.434;2023-07-29T07:47:06;100329.63;;;25.04;66.79
73558;BME280;61829;53.286;10.434;2023-07-29T07:49:32;100326.22;;;24.89;67.65
73558;BME280;61829;53.286;10.434;2023-07-29T07:51:58;100327.50;;;24.72;68.54
73558;BME280;61829;53.286;10.434;2023-07-29T07:54:24;100323.97;;;24.67;69.58
73558;BME280;61829;53.286;10.434;2023-07-29T07:56:50;100327.28;;;24.69;69.61
73558;BME280;61829;53.286;10.434;2023-07-29T07:59:16;100321.19;;;24.72;69.26
73558;BME280;61829;53.286;10.434;2023-07-29T08:01:43;100320.69;;;24.64;69.89
73558;BME280;61829;53.286;10.434;2023-07-29T08:04:09;100318.09;;;24.49;70.18
73558;BME280;61829;53.286;10.434;2023-07-29T08:06:35;100328.34;;;24.44;71.06
73558;BME280;61829;53.286;10.434;2023-07-29T08:09:01;100330.28;;;24.43;71.17
73558;BME280;61829;53.286;10.434;2023-07-29T08:11:27;100327.28;;;24.34;71.36
73558;BME280;61829;53.286;10.434;2023-07-29T08:13:53;100327.06;;;24.26;71.61
73558;BME280;61829;53.286;10.434;2023-07-29T08:16:19;100334.28;;;24.22;72.00
73558;BME280;61829;53.286;10.434;2023-07-29T08:18:45;100331.50;;;24.27;71.84
73558;BME280;61829;53.286;10.434;2023-07-29T08:21:11;100330.38;;;24.28;71.93
73558;BME280;61829;53.286;10.434;2023-07-29T08:23:37;100319.16;;;24.19;71.02
73558;BME280;61829;53.286;10.434;2023-07-29T08:26:05;100324.47;;;24.10;70.80
73558;BME280;61829;53.286;10.434;2023-07-29T08:28:33;100314.28;;;24.06;71.59
73558;BME280;61829;53.286;10.434;2023-07-29T08:30:59;100317.13;;;24.01;70.96
73558;BME280;61829;53.286;10.434;2023-07-29T08:33:26;100315.22;;;23.96;71.06
73558;BME280;61829;53.286;10.434;2023-07-29T08:35:52;100311.16;;;23.83;71.49
73558;BME280;61829;53.286;10.434;2023-07-29T08:38:18;100306.84;;;23.67;72.05
73558;BME280;61829;53.286;10.434;2023-07-29T08:43:31;100315.50;;;23.45;74.96
73558;BME280;61829;53.286;10.434;2023-07-29T08:45:58;100319.97;;;23.36;75.28
73558;BME280;61829;53.286;10.434;2023-07-29T08:48:32;100313.44;;;23.21;74.93
73558;BME280;61829;53.286;10.434;2023-07-29T08:51:03;100316.78;;;23.08;75.59
73558;BME280;61829;53.286;10.434;2023-07-29T08:53:30;100313.22;;;23.02;76.18
73558;BME280;61829;53.286;10.434;2023-07-29T08:55:57;100328.91;;;22.97;76.70
73558;BME280;61829;53.286;10.434;2023-07-29T08:58:24;100311.31;;;22.88;77.21
73558;BME280;61829;53.286;10.434;2023-07-29T09:00:50;100314.34;;;22.86;77.94
73558;BME280;61829;53.286;10.434;2023-07-29T09:03:16;100313.22;;;22.87;78.01
73558;BME280;61829;53.286;10.434;2023-07-29T09:05:42;100306.41;;;22.84;77.90
73558;BME280;61829;53.286;10.434;2023-07-29T09:08:09;100307.78;;;22.77;77.76
73558;BME280;61829;53.286;10.434;2023-07-29T09:10:36;100305.31;;;22.70;79.62
73558;BME280;61829;53.286;10.434;2023-07-29T11:11:50;100275.59;;;22.88;88.89
73558;BME280;61829;53.286;10.434;2023-07-29T11:14:16;100270.06;;;23.03;88.04
73558;BME280;61829;53.286;10.434;2023-07-29T11:16:42;100267.84;;;23.10;84.85
73558;BME280;61829;53.286;10.434;2023-07-29T11:19:12;100267.53;;;23.17;84.94
73558;BME280;61829;53.286;10.434;2023-07-29T11:21:42;100273.25;;;23.30;84.19
73558;BME280;61829;53.286;10.434;2023-07-29T11:24:09;100274.28;;;23.40;84.22
73558;BME280;61829;53.286;10.434;2023-07-29T11:26:37;100269.53;;;23.50;83.75
73558;BME280;61829;53.286;10.434;2023-07-29T11:29:03;100266.00;;;23.45;81.51
73558;BME280;61829;53.286;10.434;2023-07-29T11:31:40;100281.97;;;23.38;82.50
73558;BME280;61829;53.286;10.434;2023-07-29T11:34:09;100277.06;;;23.35;82.09
73558;BME280;61829;53.286;10.434;2023-07-29T11:36:35;100278.16;;;23.34;82.28
73558;BME280;61829;53.286;10.434;2023-07-29T11:39:09;100265.53;;;23.33;83.17
73558;BME280;61829;53.286;10.434;2023-07-29T11:41:35;100274.84;;;23.37;81.92
73558;BME280;61829;53.286;10.434;2023-07-29T11:44:01;100271.13;;;23.62;81.76
73558;BME280;61829;53.286;10.434;2023-07-29T11:46:27;100280.97;;;23.73;80.56
73558;BME280;61829;53.286;10.434;2023-07-29T11:48:57;100277.94;;;23.74;81.20
73558;BME280;61829;53.286;10.434;2023-07-29T11:51:25;100281.47;;;23.80;80.01
73558;BME280;61829;53.286;10.434;2023-07-29T11:53:51;100282.28;;;23.81;80.86
73558;BME280;61829;53.286;10.434;2023-07-29T11:56:17;100270.72;;;23.84;80.39
73558;BME280;61829;53.286;10.434;2023-07-29T11:58:43;100277.00;;;23.89;79.71
73558;BME280;61829;53.286;10.434;2023-07-29T12:01:10;100269.47;;;24.00;78.26
73558;BME280;61829;53.286;10.434;2023-07-29T12:03:36;100280.44;;;24.05;79.03
73558;BME280;61829;53.286;10.434;2023-07-29T12:06:02;100273.84;;;24.06;78.96
73558;BME280;61829;53.286;10.434;2023-07-29T12:08:29;100277.69;;;24.05;76.66
73558;BME280;61829;53.286;10.434;2023-07-29T12:10:55;100277.69;;;24.05;77.96
73558;BME280;61829;53.286;10.434;2023-07-29T12:13:24;100282.19;;;24.25;77.86
73558;BME280;61829;53.286;10.434;2023-07-29T12:15:51;100279.00;;;24.47;77.19
73558;BME280;61829;53.286;10.434;2023-07-29T12:18:17;100273.25;;;24.68;76.44
73558;BME280;61829;53.286;10.434;2023-07-29T12:20:43;100278.53;;;24.88;75.24
73558;BME280;61829;53.286;10.434;2023-07-29T12:23:09;100268.63;;;25.11;71.96
73558;BME280;61829;53.286;10.434;2023-07-29T12:25:35;100270.72;;;25.19;71.90
73558;BME280;61829;53.286;10.434;2023-07-29T12:28:05;100268.88;;;25.15;69.05
73558;BME280;61829;53.286;10.434;2023-07-29T12:30:32;100278.06;;;25.29;68.30
73558;BME280;61829;53.286;10.434;2023-07-29T12:32:58;100270.47;;;25.40;70.23
73558;BME280;61829;53.286;10.434;2023-07-29T12:35:34;100274.56;;;25.42;69.38
73558;BME280;61829;53.286;10.434;2023-07-29T12:38:00;100272.47;;;25.34;66.92
73558;BME280;61829;53.286;10.434;2023-07-29T12:40:27;100273.97;;;25.45;68.95
73558;BME280;61829;53.286;10.434;2023-07-29T12:42:53;100267.09;;;25.43;68.86
73558;BME280;61829;53.286;10.434;2023-07-29T12:45:19;100267.97;;;25.38;69.11
73558;BME280;61829;53.286;10.434;2023-07-29T12:47:47;100278.50;;;25.36;68.72
73558;BME280;61829;53.286;10.434;2023-07-29T12:50:13;100268.16;;;25.28;68.72
73558;BME280;61829;53.286;10.434;2023-07-29T12:52:39;100269.56;;;25.25;67.75
73558;BME280;61829;53.286;10.434;2023-07-29T12:55:06;100255.16;;;25.28;68.02
73558;BME280;61829;53.286;10.434;2023-07-29T12:57:34;100262.25;;;25.35;67.84
73558;BME280;61829;53.286;10.434;2023-07-29T13:00:02;100252.31;;;25.52;66.60
73558;BME280;61829;53.286;10.434;2023-07-29T13:02:29;100252.09;;;25.68;66.79
73558;BME280;61829;53.286;10.434;2023-07-29T13:04:55;100250.81;;;25.79;65.37
73558;BME280;61829;53.286;10.434;2023-07-29T13:07:21;100244.63;;;25.87;63.48
73558;BME280;61829;53.286;10.434;2023-07-29T13:10:03;100255.09;;;25.90;61.45
73558;BME280;61829;53.286;10.434;2023-07-29T13:12:29;100246.88;;;25.85;62.52
73558;BME280;61829;53.286;10.434;2023-07-29T13:14:55;100255.38;;;25.89;61.20
73558;BME280;61829;53.286;10.434;2023-07-29T13:17:22;100247.44;;;26.01;64.12
73558;BME280;61829;53.286;10.434;2023-07-29T13:19:49;100253.34;;;25.94;60.11
73558;BME280;61829;53.286;10.434;2023-07-29T13:22:15;100246.41;;;25.97;57.06
73558;BME280;61829;53.286;10.434;2023-07-29T13:24:41;100241.19;;;25.76;54.80
73558;BME280;61829;53.286;10.434;2023-07-29T13:27:07;100243.44;;;25.74;57.50
73558;BME280;61829;53.286;10.434;2023-07-29T13:29:33;100245.53;;;25.83;59.06
73558;BME280;61829;53.286;10.434;2023-07-29T13:31:59;100245.59;;;25.96;60.45
73558;BME280;61829;53.286;10.434;2023-07-29T13:34:25;100251.84;;;26.02;59.38
73558;BME280;61829;53.286;10.434;2023-07-29T13:36:51;100253.19;;;26.05;59.16
73558;BME280;61829;53.286;10.434;2023-07-29T13:39:18;100259.53;;;26.05;59.32
73558;BME280;61829;53.286;10.434;2023-07-29T13:41:43;100265.13;;;26.00;60.83
73558;BME280;61829;53.286;10.434;2023-07-29T13:44:10;100265.00;;;25.91;61.06
73558;BME280;61829;53.286;10.434;2023-07-29T13:46:36;100268.97;;;25.85;59.93
73558;BME280;61829;53.286;10.434;2023-07-29T13:49:03;100267.84;;;25.86;59.32
73558;BME280;61829;53.286;10.434;2023-07-29T13:51:29;100267.69;;;25.96;59.46
73558;BME280;61829;53.286;10.434;2023-07-29T13:53:55;100261.97;;;26.07;59.04
73558;BME280;61829;53.286;10.434;2023-07-29T13:56:22;100264.03;;;26.15;58.72
73558;BME280;61829;53.286;10.434;2023-07-29T13:58:49;100255.16;;;26.18;58.26
73558;BME280;61829;53.286;10.434;2023-07-29T14:01:15;100260.38;;;26.19;56.61
73558;BME280;61829;53.286;10.434;2023-07-29T14:03:41;100260.66;;;26.18;55.37
73558;BME280;61829;53.286;10.434;2023-07-29T14:06:07;100254.34;;;26.17;55.39
73558;BME280;61829;53.286;10.434;2023-07-29T14:08:34;100253.84;;;26.29;56.18
73558;BME280;61829;53.286;10.434;2023-07-29T14:11:01;100255.38;;;26.35;56.68
73558;BME280;61829;53.286;10.434;2023-07-29T14:13:31;100260.22;;;26.43;55.32
73558;BME280;61829;53.286;10.434;2023-07-29T14:16:04;100261.94;;;26.39;54.75
73558;BME280;61829;53.286;10.434;2023-07-29T14:18:44;100259.81;;;26.36;53.61
73558;BME280;61829;53.286;10.434;2023-07-29T14:21:10;100263.94;;;26.67;53.24
73558;BME280;61829;53.286;10.434;2023-07-29T14:23:36;100270.97;;;26.45;53.35
73558;BME280;61829;53.286;10.434;2023-07-29T14:26:02;100265.69;;;26.16;54.18
73558;BME280;61829;53.286;10.434;2023-07-29T14:28:28;100272.41;;;26.10;55.88
73558;BME280;61829;53.286;10.434;2023-07-29T14:30:55;100266.31;;;26.13;57.12
73558;BME280;61829;53.286;10.434;2023-07-29T14:33:23;100264.13;;;26.10;56.46
73558;BME280;61829;53.286;10.434;2023-07-29T14:35:49;100268.19;;;25.98;54.96
73558;BME280;61829;53.286;10.434;2023-07-29T14:38:15;100264.19;;;25.91;56.09
73558;BME280;61829;53.286;10.434;2023-07-29T14:40:42;100262.63;;;25.85;56.05
73558;BME280;61829;53.286;10.434;2023-07-29T14:43:08;100261.41;;;25.72;55.71
73558;BME280;61829;53.286;10.434;2023-07-29T14:45:34;100258.97;;;25.70;56.29
73558;BME280;61829;53.286;10.434;2023-07-29T14:48:00;100264.69;;;25.74;55.37
73558;BME280;61829;53.286;10.434;2023-07-29T14:50:26;100262.09;;;25.83;53.18
73558;BME280;61829;53.286;10.434;2023-07-29T14:52:52;100263.50;;;25.80;54.43
73558;BME280;61829;53.286;10.434;2023-07-29T14:55:18;100262.94;;;25.83;55.85